createdAt,value
2018-06-10T00:08:13.263Z,68.0
2018-06-10T00:25:04.393Z,68.0
2018-06-10T00:41:55.320Z,68.0
2018-06-10T00:58:46.385Z,68.4
2018-06-10T01:15:37.123Z,68.4
2018-06-10T01:32:27.815Z,68.4
2018-06-10T01:49:18.228Z,68.4
2018-06-10T02:06:08.565Z,68.4
2018-06-10T02:22:58.893Z,68.4
2018-06-10T02:39:49.121Z,68.4
2018-06-10T02:56:39.254Z,68.8
2018-06-10T03:13:29.386Z,69.2
2018-06-10T03:30:19.347Z,69.6
2018-06-10T03:47:09.149Z,70.8
2018-06-10T04:00:36.282Z,72.8
2018-06-10T04:10:41.187Z,74.8
2018-06-10T04:27:29.071Z,75.6
2018-06-10T04:40:54.764Z,77.2
2018-06-10T04:57:41.673Z,78.4
2018-06-10T05:14:28.501Z,78.8
2018-06-10T05:31:15.085Z,78.4
2018-06-10T05:44:40.943Z,77.2
2018-06-10T05:54:45.936Z,76.0
2018-06-10T06:11:34.819Z,74.0
2018-06-10T06:28:24.085Z,72.8
2018-06-10T06:45:13.739Z,72.0
2018-06-10T07:02:03.216Z,72.0
2018-06-10T07:18:52.980Z,71.6
2018-06-10T07:35:43.284Z,71.2
2018-06-10T07:52:33.476Z,71.2
2018-06-10T08:09:23.713Z,70.8
2018-06-10T08:26:13.896Z,70.4
2018-06-10T08:43:04.600Z,69.6
2018-06-10T08:59:55.240Z,69.2
2018-06-10T09:16:45.927Z,69.2
2018-06-10T09:33:36.858Z,68.8
2018-06-10T09:50:28.296Z,67.6
2018-06-10T10:07:19.202Z,68.0
2018-06-10T10:24:10.379Z,68.0
2018-06-10T10:41:01.047Z,67.2
2018-06-10T10:57:52.186Z,67.6
2018-06-10T11:14:43.278Z,66.4
2018-06-10T11:31:34.528Z,66.0
2018-06-10T11:48:25.834Z,65.6
2018-06-10T12:05:17.191Z,65.2
2018-06-10T12:22:08.373Z,65.2
2018-06-10T12:38:59.919Z,64.4
2018-06-10T12:55:51.715Z,64.0
2018-06-10T13:12:43.814Z,63.2
2018-06-10T13:29:36.043Z,62.8
2018-06-10T13:46:28.545Z,62.8
2018-06-10T14:03:20.718Z,62.8
2018-06-10T14:20:13.151Z,61.6
2018-06-10T14:37:05.794Z,62.0
2018-06-10T14:53:58.172Z,61.2
2018-06-10T15:10:51.504Z,60.8
2018-06-10T15:27:44.094Z,60.4
2018-06-10T15:44:37.060Z,60.0
2018-06-10T16:01:29.939Z,60.0
2018-06-10T16:18:22.774Z,59.2
2018-06-10T16:35:15.498Z,58.4
2018-06-10T16:52:08.248Z,58.0
2018-06-10T17:09:00.890Z,58.4
2018-06-10T17:25:53.686Z,58.4
2018-06-10T17:42:46.126Z,59.2
2018-06-10T17:59:38.565Z,59.6
2018-06-10T18:16:30.796Z,61.2
2018-06-10T18:33:22.805Z,61.6
2018-06-10T18:50:14.831Z,62.0
2018-06-10T19:07:06.623Z,62.4
2018-06-10T19:23:58.118Z,62.0
2018-06-10T19:40:49.626Z,62.4
2018-06-10T19:55:59.619Z,62.8
2018-06-10T20:01:02.814Z,62.8
2018-06-10T20:12:49.515Z,64.0
2018-06-10T20:26:16.692Z,65.2
2018-06-10T20:43:04.786Z,66.0
2018-06-10T20:59:53.332Z,64.8
2018-06-10T21:16:41.880Z,64.4
2018-06-10T21:33:30.317Z,64.4
2018-06-10T21:50:18.685Z,63.6
2018-06-10T22:07:06.325Z,64.0
2018-06-10T22:17:10.950Z,64.4
2018-06-10T22:33:58.920Z,63.2
2018-06-10T22:50:46.938Z,62.8
2018-06-10T23:07:34.976Z,62.8
2018-06-10T23:24:23.185Z,62.4
2018-06-10T23:41:11.309Z,62.4
2018-06-10T23:57:59.652Z,62.0
